ZGOW

Shantou Waisha Airport

Shantou, China
TAF ZGOW 211502Z 2118/2218 21003MPS 6000 FEW018 SCT050 TX32/2207Z TN25/2122Z TEMPO 2205/2209 VRB09G15MPS 2100 TSRA SCT011 SCT026CB BKN033
Issued Valid From Valid To
Jun-21 @ 15:02 UTC
(3 hours ago)
Jun-21 @ 18:00 UTC
(6 minutes ago)
Jun-22 @ 18:00 UTC
(in 24 hours)
Jun-21 @ 18:00 to Jun-22 @ 18:00
TAF ZGOW 211502Z 2118/2218 21003MPS 6000 FEW018 SCT050 TX32/2207Z TN25/2122Z
Wind Visibility Clouds
210° at 6 knots 6,003 meters
  • Few at 1,800' AGL
  • Scattered at 5,000' AGL
Temporary Jun-22 @ 05:00 to Jun-22 @ 09:00
TEMPO 2205/2209 VRB09G15MPS 2100 TSRA SCT011 SCT026CB BKN033
Wind Visibility Clouds Conditions
Variable at 17 knots
 Gusting to 29 knots
2,092 meters
  • Scattered at 1,100' AGL
  • Scattered at 2,600' AGL
  • Broken at 3,300' AGL
  • Thunderstorm
  • Rain
TAF ZGOW 211502Z 2118/2218 21003MPS 6000 FEW018 SCT050 TX32/2207Z TN25/2122Z TEMPO 2205/2209 VRB09G15MPS 2100 TSRA SCT011 SCT026CB BKN033
Issued Jun-21 @ 15:02 UTC
(3 hours ago)
Valid From Jun-21 @ 18:00 UTC
(6 minutes ago)
Valid To Jun-22 @ 18:00 UTC
(in 24 hours)
Jun-21 @ 18:00 - Jun-22 @ 18:00
Wind Visibility
210° at 6 knots 6,003 meters
Clouds
  • Few at 1,800' AGL
  • Scattered at 5,000' AGL
Temporary Jun-22 @ 05:00 - Jun-22 @ 09:00
Wind Visibility
Variable at 17 knots
 Gusting to 29 knots
2,092 meters
Clouds
  • Scattered at 1,100' AGL
  • Scattered at 2,600' AGL
  • Broken at 3,300' AGL
Conditions
  • Thunderstorm
  • Rain